Time;durP1;ratioP1;P1;durP2;ratioP2;P2;SDS_P1;SDS_P2;PMS_P1;PMS_P2;Temp;Humidity;BMP_temperature;BMP_pressure;BME280_temperature;BME280_humidity;BME280_pressure;Samples;Min_cycle;Max_cycle;Signal;HPM_P1;HPM_P2
2023/01/18 00:01:37;;;;;;;31.10;13.43;;;;;;;-3.34;100.00;99067.53;5325518;27;20031;-82
2023/01/18 00:04:09;;;;;;;21.60;13.38;;;;;;;-3.36;100.00;99075.44;5333695;27;20023;-82
2023/01/18 00:06:40;;;;;;;22.50;12.90;;;;;;;-3.49;100.00;99070.19;5346446;27;20085;-82
2023/01/18 00:09:11;;;;;;;21.88;12.60;;;;;;;-3.59;100.00;99063.00;5353781;27;20080;-82
2023/01/18 00:11:43;;;;;;;21.50;11.85;;;;;;;-3.61;100.00;99065.75;5345020;27;38647;-82
2023/01/18 00:14:14;;;;;;;21.77;11.90;;;;;;;-3.61;100.00;99058.75;5343560;27;20024;-82
2023/01/18 00:16:45;;;;;;;21.77;12.40;;;;;;;-3.76;100.00;99051.06;5336485;27;20036;-83
2023/01/18 00:19:16;;;;;;;21.13;11.77;;;;;;;-3.64;100.00;99065.94;5342100;27;20065;-82
2023/01/18 00:21:53;;;;;;;24.02;12.63;;;;;;;-3.56;100.00;99065.44;5339836;27;20392;-82
2023/01/18 00:24:26;;;;;;;22.95;13.70;;;;;;;-3.59;100.00;99071.69;5340188;27;20468;-82
2023/01/18 00:26:57;;;;;;;29.25;14.07;;;;;;;-3.55;100.00;99078.38;5344553;27;20020;-82
2023/01/18 00:29:30;;;;;;;21.88;13.40;;;;;;;-3.62;100.00;99064.88;5328055;27;20016;-82
2023/01/18 00:32:01;;;;;;;23.40;13.48;;;;;;;-3.61;100.00;99073.56;5331970;27;20104;-82
2023/01/18 00:34:32;;;;;;;21.52;11.82;;;;;;;-3.58;100.00;99081.16;5336112;27;20112;-82
2023/01/18 00:37:06;;;;;;;28.65;13.60;;;;;;;-3.60;100.00;99085.66;5338649;27;20042;-82
2023/01/18 00:39:39;;;;;;;22.25;13.68;;;;;;;-3.51;100.00;99081.63;5349242;27;20015;-82
2023/01/18 00:45:01;;;;;;;22.67;13.48;;;;;;;-3.46;100.00;99080.41;5342265;27;20024;-81
2023/01/18 00:47:32;;;;;;;21.67;12.82;;;;;;;-3.53;100.00;99079.13;5345709;27;20509;-81
2023/01/18 00:50:04;;;;;;;25.50;13.35;;;;;;;-3.48;100.00;99082.28;5359713;27;20019;-81
2023/01/18 00:52:37;;;;;;;23.52;13.18;;;;;;;-3.63;100.00;99078.88;5357149;27;20110;-80
2023/01/18 00:55:08;;;;;;;24.42;13.88;;;;;;;-3.73;100.00;99084.75;5350114;27;20414;-81
2023/01/18 00:57:40;;;;;;;20.52;13.75;;;;;;;-3.81;100.00;99090.41;5333634;27;20071;-81
2023/01/18 01:00:13;;;;;;;22.30;12.52;;;;;;;-3.68;100.00;99093.09;5326164;27;20031;-81
2023/01/18 01:02:45;;;;;;;23.55;13.82;;;;;;;-3.75;100.00;99090.06;5333705;27;20031;-82
2023/01/18 01:08:15;;;;;;;24.75;13.45;;;;;;;-3.68;100.00;99093.94;5347473;27;20020;-82
2023/01/18 01:10:48;;;;;;;22.83;13.93;;;;;;;-3.68;100.00;99090.47;5346848;27;20035;-82
2023/01/18 01:27:30;;;;;;;24.45;13.40;;;;;;;-3.49;100.00;99095.41;5379980;27;20114;-82
2023/01/18 01:30:03;;;;;;;22.75;12.45;;;;;;;-3.47;100.00;99098.75;5361606;27;20125;-82
2023/01/18 01:32:34;;;;;;;23.75;13.18;;;;;;;-3.53;100.00;99106.94;5366334;27;20027;-82
2023/01/18 01:35:05;;;;;;;19.00;13.45;;;;;;;-3.55;100.00;99114.03;5353157;27;20581;-82
2023/01/18 01:37:37;;;;;;;23.67;12.68;;;;;;;-3.53;100.00;99112.16;5367018;27;20031;-82
2023/01/18 01:40:09;;;;;;;23.30;13.13;;;;;;;-3.59;100.00;99118.59;5363851;27;20412;-83
2023/01/18 01:42:40;;;;;;;21.27;12.48;;;;;;;-3.58;100.00;99122.03;5358685;27;20054;-83
2023/01/18 01:45:11;;;;;;;21.10;12.00;;;;;;;-3.58;100.00;99124.66;5352906;27;20504;-83
2023/01/18 01:47:43;;;;;;;21.67;12.35;;;;;;;-3.59;100.00;99122.97;5347987;27;20713;-83
2023/01/18 01:50:26;;;;;;;16.73;12.05;;;;;;;-3.51;100.00;99133.75;5364363;27;20041;-83
2023/01/18 01:52:58;;;;;;;19.95;11.68;;;;;;;-3.51;100.00;99125.94;5361472;27;20472;-82
2023/01/18 01:55:39;;;;;;;22.73;13.43;;;;;;;-3.66;100.00;99131.16;5361479;27;20081;-83
2023/01/18 01:58:20;;;;;;;21.42;11.48;;;;;;;-3.60;100.00;99132.56;5354754;27;20034;-83
2023/01/18 02:00:53;;;;;;;21.58;12.55;;;;;;;-3.70;100.00;99136.66;5358746;27;20031;-83
2023/01/18 02:03:24;;;;;;;26.50;13.82;;;;;;;-3.70;100.00;99123.63;5359039;27;20058;-83
2023/01/18 02:06:22;;;;;;;28.83;13.27;;;;;;;-3.71;100.00;99141.03;5365031;27;20019;-83
2023/01/18 02:08:53;;;;;;;;;;;;;;;-3.72;100.00;99128.09;5365893;27;20028;-82
2023/01/18 02:11:25;;;;;;;22.67;12.55;;;;;;;-3.74;100.00;99129.97;5348262;27;19908;-82
2023/01/18 02:14:01;;;;;;;21.95;12.18;;;;;;;-3.62;100.00;99132.66;5354612;27;20024;-83
2023/01/18 02:16:50;;;;;;;26.33;13.80;;;;;;;-3.79;100.00;99130.22;5368082;27;20038;-81
2023/01/18 02:19:43;;;;;;;25.08;12.60;;;;;;;-3.88;100.00;99133.41;5369277;27;20027;-81
2023/01/18 02:22:36;;;;;;;22.02;11.98;;;;;;;-3.80;100.00;99125.97;5363427;27;20036;-81
2023/01/18 02:25:38;;;;;;;23.05;13.50;;;;;;;-3.76;100.00;99130.06;5347217;27;20111;-82
2023/01/18 02:28:20;;;;;;;24.90;12.88;;;;;;;-3.71;100.00;99121.97;5348649;27;20023;-82
2023/01/18 02:30:59;;;;;;;24.80;13.73;;;;;;;-3.65;100.00;99118.97;5348257;27;20028;-82
2023/01/18 02:33:56;;;;;;;25.85;13.68;;;;;;;-3.82;100.00;99131.28;5347117;27;20034;-81
2023/01/18 02:36:41;;;;;;;19.90;12.45;;;;;;;-4.00;100.00;99138.44;5342158;27;20047;-81
2023/01/18 02:39:30;;;;;;;22.95;11.85;;;;;;;-4.13;100.00;99139.25;5339589;27;20023;-82
2023/01/18 02:48:07;;;;;;;21.80;12.57;;;;;;;-4.15;100.00;99148.91;5332806;27;20024;-82
2023/01/18 02:50:38;;;;;;;25.75;12.48;;;;;;;-4.31;100.00;99149.81;5341486;27;20073;-81
2023/01/18 02:53:13;;;;;;;19.45;12.20;;;;;;;-4.38;100.00;99149.34;5312616;27;20027;-82
2023/01/18 02:55:54;;;;;;;23.15;12.77;;;;;;;-4.31;100.00;99159.38;5331112;27;20042;-82
2023/01/18 02:58:37;;;;;;;35.20;14.90;;;;;;;-4.29;100.00;99153.16;5340209;27;20032;-81
2023/01/18 03:01:27;;;;;;;25.58;13.90;;;;;;;-4.31;100.00;99149.81;5337261;27;20028;-81
2023/01/18 03:04:39;;;;;;;25.90;13.20;;;;;;;-4.27;100.00;99151.31;5331543;27;20468;-82
2023/01/18 03:07:23;;;;;;;20.42;12.82;;;;;;;-4.26;100.00;99159.94;5335561;27;20440;-82
2023/01/18 03:09:57;;;;;;;27.83;13.77;;;;;;;-4.24;100.00;99155.53;5333734;27;20008;-82
2023/01/18 03:12:46;;;;;;;22.95;13.43;;;;;;;-4.31;100.00;99149.81;5338899;27;20031;-83
2023/01/18 03:15:29;;;;;;;21.92;13.57;;;;;;;-4.32;100.00;99155.13;5323271;27;20024;-82
2023/01/18 03:18:15;;;;;;;21.80;12.75;;;;;;;-4.33;100.00;99150.81;5321681;27;20039;-83
2023/01/18 03:20:52;;;;;;;24.50;12.20;;;;;;;-4.24;100.00;99151.13;5348950;27;20114;-82
2023/01/18 03:23:38;;;;;;;20.08;13.35;;;;;;;-4.27;100.00;99155.69;5342642;27;20062;-81
2023/01/18 03:26:15;;;;;;;22.15;13.77;;;;;;;-4.33;100.00;99153.44;5355881;27;20034;-81
2023/01/18 03:35:07;;;;;;;23.80;14.10;;;;;;;-4.31;100.00;99155.03;5341006;27;20032;-81
2023/01/18 03:37:41;;;;;;;21.17;12.75;;;;;;;-4.34;100.00;99151.78;5319034;27;20064;-82
2023/01/18 03:40:18;;;;;;;23.20;13.48;;;;;;;-4.38;100.00;99159.75;5336376;27;20035;-82
2023/01/18 03:43:07;;;;;;;23.80;13.27;;;;;;;-4.34;100.00;99165.63;5328243;27;20016;-82
2023/01/18 03:45:42;;;;;;;23.90;13.77;;;;;;;-4.42;100.00;99171.28;5333830;27;20016;-82
2023/01/18 03:48:14;;;;;;;20.65;13.70;;;;;;;-4.45;100.00;99170.59;5331916;27;20024;-82
2023/01/18 03:50:51;;;;;;;23.42;14.18;;;;;;;-4.42;100.00;99167.81;5339657;27;20024;-82
2023/01/18 03:53:25;;;;;;;;;;;;;;;-4.41;100.00;99172.09;5331564;27;20078;-82
2023/01/18 03:56:03;;;;;;;24.88;14.55;;;;;;;-4.40;100.00;99181.56;5309556;27;19922;-82
2023/01/18 03:58:35;;;;;;;27.00;15.52;;;;;;;-4.36;100.00;99190.91;5331773;27;20109;-82
2023/01/18 04:01:07;;;;;;;27.92;17.17;;;;;;;-4.32;100.00;99194.16;5336919;27;20028;-81
2023/01/18 04:03:38;;;;;;;24.25;15.18;;;;;;;-4.33;100.00;99195.94;5311161;27;20124;-82
2023/01/18 04:06:09;;;;;;;26.55;15.70;;;;;;;-4.31;100.00;99208.84;5334394;27;20027;-82
2023/01/18 04:08:40;;;;;;;29.08;14.93;;;;;;;-4.30;100.00;99208.75;5315734;27;20123;-82
2023/01/18 04:11:12;;;;;;;31.30;15.80;;;;;;;-4.34;100.00;99204.66;5332201;27;20032;-82
2023/01/18 04:13:43;;;;;;;25.58;15.68;;;;;;;-4.32;100.00;99202.81;5333160;27;20032;-82
2023/01/18 04:16:15;;;;;;;27.75;16.20;;;;;;;-4.37;100.00;99203.06;5335164;27;20024;-82
2023/01/18 04:18:46;;;;;;;33.65;17.27;;;;;;;-4.33;100.00;99202.91;5339848;27;20369;-82
2023/01/18 04:21:17;;;;;;;29.10;17.60;;;;;;;-4.30;100.00;99206.16;5328757;27;20145;-83
2023/01/18 04:23:48;;;;;;;26.92;16.15;;;;;;;-4.24;100.00;99208.41;5349047;27;20043;-82
2023/01/18 04:26:20;;;;;;;26.88;16.25;;;;;;;-4.15;100.00;99220.06;5356884;27;20066;-82
2023/01/18 04:28:51;;;;;;;25.33;16.20;;;;;;;-4.13;100.00;99215.59;5358959;27;20034;-82
2023/01/18 04:31:22;;;;;;;31.33;16.67;;;;;;;-4.14;100.00;99213.91;5351042;27;20023;-82
2023/01/18 04:33:54;;;;;;;27.50;16.02;;;;;;;-4.16;100.00;99214.94;5355620;27;20034;-82
2023/01/18 04:36:27;;;;;;;26.65;16.85;;;;;;;-4.21;100.00;99213.47;5357012;27;20038;-82
2023/01/18 04:38:58;;;;;;;29.02;16.05;;;;;;;-4.16;100.00;99218.38;5350462;27;20019;-82
2023/01/18 04:41:29;;;;;;;29.55;16.67;;;;;;;-4.21;100.00;99233.44;5355759;27;20031;-82
2023/01/18 04:44:01;;;;;;;31.77;16.48;;;;;;;-4.18;100.00;99218.47;5356611;27;20076;-83
2023/01/18 04:46:32;;;;;;;31.80;16.92;;;;;;;-4.11;100.00;99221.56;5355231;27;20074;-83
2023/01/18 04:49:05;;;;;;;24.25;15.75;;;;;;;-4.13;100.00;99228.63;5354406;27;20034;-82
2023/01/18 04:51:37;;;;;;;30.13;17.73;;;;;;;-4.11;100.00;99226.78;5356685;27;20092;-82
2023/01/18 04:54:10;;;;;;;34.78;17.30;;;;;;;-4.04;100.00;99232.47;5354873;27;20620;-82
2023/01/18 04:56:42;;;;;;;26.23;15.80;;;;;;;-3.96;100.00;99230.25;5356019;27;20540;-83
2023/01/18 04:59:15;;;;;;;27.52;18.13;;;;;;;-4.01;100.00;99227.09;5356270;27;20023;-83
2023/01/18 05:01:46;;;;;;;32.25;17.85;;;;;;;-4.02;100.00;99230.59;5354230;27;20027;-83
2023/01/18 05:04:17;;;;;;;27.40;17.08;;;;;;;-4.00;100.00;99236.56;5350445;27;20019;-82
2023/01/18 05:06:49;;;;;;;27.27;16.95;;;;;;;-4.03;100.00;99239.38;5359685;27;20023;-81
2023/01/18 05:09:20;;;;;;;29.85;17.05;;;;;;;-4.07;100.00;99243.88;5361772;27;20022;-82
2023/01/18 05:11:51;;;;;;;31.27;17.02;;;;;;;-4.04;100.00;99248.09;5358943;27;20535;-82
2023/01/18 05:14:23;;;;;;;29.80;17.40;;;;;;;-4.06;100.00;99257.78;5357038;27;21068;-82
2023/01/18 05:16:54;;;;;;;28.45;17.95;;;;;;;-4.07;100.00;99253.47;5352999;27;20035;-82
2023/01/18 05:19:29;;;;;;;30.95;16.88;;;;;;;-4.09;100.00;99245.75;5360309;27;20067;-82
2023/01/18 05:22:00;;;;;;;27.15;16.67;;;;;;;-4.06;100.00;99260.38;5357193;27;20040;-81
2023/01/18 05:24:32;;;;;;;24.75;16.55;;;;;;;-4.06;100.00;99260.38;5319123;27;20031;-81
2023/01/18 05:27:03;;;;;;;27.83;17.67;;;;;;;-4.12;100.00;99265.91;5319083;27;20259;-81
2023/01/18 05:29:34;;;;;;;32.95;17.35;;;;;;;-4.06;100.00;99265.59;5338859;27;20392;-82
2023/01/18 05:32:06;;;;;;;30.40;18.65;;;;;;;-4.03;100.00;99266.25;5335035;27;20019;-82
2023/01/18 05:34:37;;;;;;;26.30;16.92;;;;;;;-3.95;100.00;99268.38;5337240;27;20039;-82
2023/01/18 05:37:09;;;;;;;31.52;17.38;;;;;;;-4.00;100.00;99267.81;5337624;27;20038;-82
2023/01/18 05:39:40;;;;;;;29.10;17.52;;;;;;;-4.04;100.00;99268.94;5327673;27;20494;-82
2023/01/18 05:42:12;;;;;;;27.88;17.10;;;;;;;-4.06;100.00;99274.22;5338404;27;20031;-81
2023/01/18 05:44:45;;;;;;;30.92;17.50;;;;;;;-4.07;100.00;99279.50;5332676;27;20051;-82
2023/01/18 05:47:17;;;;;;;27.92;19.00;;;;;;;-4.06;100.00;99281.22;5312140;27;20032;-83
2023/01/18 05:49:48;;;;;;;29.55;18.15;;;;;;;-4.07;100.00;99280.34;5335378;27;20038;-83
2023/01/18 05:52:19;;;;;;;30.77;18.10;;;;;;;-4.03;100.00;99283.66;5337237;27;20024;-83
2023/01/18 05:54:50;;;;;;;29.85;18.70;;;;;;;-4.01;100.00;99281.78;5332453;27;20020;-82
2023/01/18 05:57:22;;;;;;;28.73;18.67;;;;;;;-4.02;100.00;99293.13;5353517;27;20065;-82
2023/01/18 05:59:53;;;;;;;32.42;19.23;;;;;;;-4.03;100.00;99297.50;5354243;27;20021;-82
2023/01/18 06:02:24;;;;;;;29.17;17.88;;;;;;;-4.03;100.00;99291.47;5352658;27;20288;-82
2023/01/18 06:04:56;;;;;;;38.08;19.83;;;;;;;-4.00;100.00;99294.72;5341056;27;20015;-82
2023/01/18 06:07:27;;;;;;;40.03;20.50;;;;;;;-4.01;100.00;99294.81;5341612;27;27891;-82
2023/01/18 06:09:58;;;;;;;29.92;19.25;;;;;;;-4.03;100.00;99292.28;5344432;27;20022;-83
2023/01/18 06:12:30;;;;;;;30.25;19.23;;;;;;;-3.93;100.00;99304.78;5336514;27;20016;-83
2023/01/18 06:15:01;;;;;;;31.98;18.17;;;;;;;-3.93;100.00;99307.38;5342029;27;20031;-83
2023/01/18 06:17:33;;;;;;;30.58;18.33;;;;;;;-3.87;100.00;99307.03;5335117;27;20028;-82
2023/01/18 06:20:05;;;;;;;30.02;21.13;;;;;;;-3.88;100.00;99313.16;5334223;27;20169;-82
2023/01/18 06:22:36;;;;;;;28.92;19.77;;;;;;;-3.93;100.00;99318.63;5338299;27;20177;-82
2023/01/18 06:25:08;;;;;;;33.50;20.63;;;;;;;-3.91;100.00;99314.19;5360881;27;20023;-82
2023/01/18 06:27:40;;;;;;;31.85;20.85;;;;;;;-3.88;100.00;99323.59;5357796;27;20015;-82
2023/01/18 06:30:11;;;;;;;27.45;18.33;;;;;;;-3.87;100.00;99327.88;5360005;27;20058;-83
2023/01/18 06:32:43;;;;;;;28.25;19.08;;;;;;;-3.89;100.00;99337.53;5359209;27;20026;-82
2023/01/18 06:35:14;;;;;;;34.67;19.95;;;;;;;-3.91;100.00;99336.78;5362351;27;20066;-82
2023/01/18 06:37:46;;;;;;;29.65;19.05;;;;;;;-3.93;100.00;99344.69;5353427;27;20079;-82
2023/01/18 06:40:17;;;;;;;31.67;19.48;;;;;;;-3.92;100.00;99346.38;5359113;27;20015;-82
2023/01/18 06:42:48;;;;;;;30.40;18.65;;;;;;;-3.93;100.00;99341.25;5360099;27;20114;-82
2023/01/18 06:45:21;;;;;;;33.20;19.38;;;;;;;-3.96;100.00;99344.03;5344291;27;20011;-82
2023/01/18 06:47:52;;;;;;;29.15;19.58;;;;;;;-3.99;100.00;99345.03;5360698;27;20085;-82
2023/01/18 06:50:23;;;;;;;29.80;19.98;;;;;;;-3.94;100.00;99350.00;5362985;27;20020;-82
2023/01/18 06:52:54;;;;;;;26.55;18.38;;;;;;;-3.94;100.00;99360.44;5352275;27;20019;-82
2023/01/18 06:55:26;;;;;;;32.78;21.02;;;;;;;-3.93;100.00;99360.31;5354644;27;20357;-82
2023/01/18 06:57:57;;;;;;;30.55;20.02;;;;;;;-3.93;100.00;99365.53;5362179;27;20118;-81
2023/01/18 07:00:29;;;;;;;32.75;20.02;;;;;;;-3.94;100.00;99365.63;5357728;27;20029;-82
2023/01/18 07:03:00;;;;;;;31.45;20.00;;;;;;;-3.95;100.00;99372.59;5360260;27;20012;-81
2023/01/18 07:05:31;;;;;;;31.50;20.08;;;;;;;-3.94;100.00;99376.06;5366467;27;20034;-82
2023/01/18 07:08:03;;;;;;;35.22;20.15;;;;;;;-3.91;100.00;99387.16;5363597;27;20019;-82
2023/01/18 07:10:34;;;;;;;31.63;20.98;;;;;;;-3.97;100.00;99391.84;5365547;27;20070;-82
2023/01/18 07:13:06;;;;;;;33.33;20.13;;;;;;;-3.91;100.00;99394.09;5365637;27;20015;-82
2023/01/18 07:15:37;;;;;;;30.08;20.58;;;;;;;-3.91;100.00;99387.16;5357219;27;20027;-82
2023/01/18 07:18:09;;;;;;;32.08;20.23;;;;;;;-3.87;100.00;99387.81;5360623;27;20085;-81
2023/01/18 07:20:40;;;;;;;29.98;18.90;;;;;;;-3.85;100.00;99394.59;5367269;27;20508;-82
2023/01/18 07:23:11;;;;;;;33.95;20.02;;;;;;;-3.87;100.00;99404.28;5342359;27;20472;-82
2023/01/18 07:25:42;;;;;;;30.90;19.83;;;;;;;-3.87;100.00;99400.84;5341516;27;20165;-82
2023/01/18 07:28:14;;;;;;;34.13;19.35;;;;;;;-3.82;100.00;99399.66;5329678;27;20164;-82
2023/01/18 07:30:45;;;;;;;26.60;18.13;;;;;;;-3.84;100.00;99405.84;5334660;27;31068;-82
2023/01/18 07:33:16;;;;;;;28.52;19.30;;;;;;;-3.78;100.00;99402.91;5344237;27;20102;-82
2023/01/18 07:35:50;;;;;;;33.50;19.92;;;;;;;-3.74;100.00;99400.97;5336655;27;20024;-82
2023/01/18 07:38:22;;;;;;;28.45;18.60;;;;;;;-3.71;100.00;99406.03;5334938;27;20032;-82
2023/01/18 07:41:01;;;;;;;32.40;19.42;;;;;;;-3.67;100.00;99410.13;5328596;27;20106;-81
2023/01/18 07:43:33;;;;;;;33.42;19.42;;;;;;;-3.61;100.00;99413.22;5340033;27;20039;-82
2023/01/18 07:46:07;;;;;;;31.38;19.00;;;;;;;-3.63;100.00;99416.81;5339949;27;20028;-82
2023/01/18 07:48:38;;;;;;;31.80;19.92;;;;;;;-3.64;100.00;99418.59;5336538;27;20024;-83
2023/01/18 07:51:10;;;;;;;29.38;19.15;;;;;;;-3.60;100.00;99414.06;5340510;27;20051;-83
2023/01/18 07:53:42;;;;;;;33.42;19.55;;;;;;;-3.57;100.00;99420.88;5316332;28;20504;-82
2023/01/18 07:56:16;;;;;;;28.98;18.65;;;;;;;-3.54;100.00;99423.28;5332548;27;20036;-82
2023/01/18 07:58:47;;;;;;;31.42;18.58;;;;;;;-3.43;100.00;99432.19;5320161;27;20031;-81
2023/01/18 08:01:21;;;;;;;26.50;18.10;;;;;;;-3.45;100.00;99426.22;5344545;27;20051;-82
2023/01/18 08:03:53;;;;;;;30.35;18.10;;;;;;;-3.44;100.00;99425.31;5327680;27;20524;-82
2023/01/18 08:06:26;;;;;;;28.95;19.83;;;;;;;-3.40;100.00;99432.94;5326335;27;20048;-81
2023/01/18 08:08:58;;;;;;;27.02;18.17;;;;;;;-3.40;100.00;99441.59;5331885;27;20023;-82
2023/01/18 08:11:30;;;;;;;30.85;17.45;;;;;;;-3.35;100.00;99444.75;5337158;27;20054;-82
2023/01/18 08:14:01;;;;;;;32.55;18.52;;;;;;;-3.33;100.00;99439.47;5341888;27;20452;-82
2023/01/18 08:16:33;;;;;;;35.00;18.63;;;;;;;-3.26;100.00;99444.25;5341422;27;20028;-81
2023/01/18 08:19:04;;;;;;;24.80;17.23;;;;;;;-3.26;100.00;99446.88;5346408;27;20026;-82
2023/01/18 08:21:35;;;;;;;26.58;16.50;;;;;;;-3.20;100.00;99445.66;5337975;27;20117;-80
2023/01/18 08:24:06;;;;;;;28.65;18.27;;;;;;;-3.19;100.00;99443.88;5334225;27;20097;-82
2023/01/18 08:26:38;;;;;;;26.98;17.83;;;;;;;-3.18;100.00;99445.56;5351082;27;20081;-82
2023/01/18 08:29:10;;;;;;;28.20;18.00;;;;;;;-3.13;100.00;99454.81;5332649;27;20020;-81
2023/01/18 08:31:55;;;;;;;27.30;17.83;;;;;;;-3.09;100.00;99455.47;5323264;27;20096;-82
2023/01/18 08:37:54;;;;;;;25.88;16.80;;;;;;;-3.08;100.00;99460.59;5286984;27;20040;-82
2023/01/18 08:40:41;;;;;;;27.58;17.00;;;;;;;-3.06;100.00;99452.69;5309444;27;20047;-81
2023/01/18 08:43:23;;;;;;;26.92;17.65;;;;;;;-2.97;100.00;99475.63;5336541;27;20036;-82
2023/01/18 08:46:07;;;;;;;25.50;17.58;;;;;;;-2.93;100.00;99481.50;5328817;27;20023;-83
2023/01/18 08:52:28;;;;;;;25.20;17.50;;;;;;;-2.87;100.00;99489.81;5237275;28;20026;-83
2023/01/18 08:55:28;;;;;;;23.25;16.08;;;;;;;-2.84;100.00;99475.72;5264856;27;20074;-83
2023/01/18 08:58:15;;;;;;;23.70;16.50;;;;;;;-2.68;100.00;99497.41;5317875;27;20090;-83
2023/01/18 09:00:50;;;;;;;25.63;17.17;;;;;;;-2.70;100.00;99490.56;5311607;28;20035;-82
2023/01/18 09:03:34;;;;;;;26.80;17.10;;;;;;;-2.59;100.00;99489.97;5328746;27;20077;-83
2023/01/18 09:06:11;;;;;;;24.77;15.68;;;;;;;-2.61;100.00;99482.22;5328960;27;20035;-83
2023/01/18 09:08:46;;;;;;;23.58;16.27;;;;;;;-2.41;100.00;99501.06;5348081;27;20024;-83
2023/01/18 09:11:34;;;;;;;25.48;16.80;;;;;;;-2.29;100.00;99502.94;5328160;27;20082;-84
2023/01/18 09:21:44;;;;;;;21.92;14.68;;;;;;;-2.10;100.00;99516.53;5473244;22;20041;-83
2023/01/18 09:31:59;;;;;;;18.60;14.02;;;;;;;-1.82;100.00;99538.38;5298393;28;20102;-83
2023/01/18 09:35:51;;;;;;;21.33;14.70;;;;;;;-1.81;100.00;99513.06;5265251;28;20124;-82
2023/01/18 09:38:33;;;;;;;21.92;15.27;;;;;;;-1.72;100.00;99526.41;5272276;28;20057;-81
2023/01/18 09:41:20;;;;;;;17.58;14.35;;;;;;;-1.69;100.00;99516.69;5277143;28;20033;-83
2023/01/18 09:44:09;;;;;;;22.20;14.80;;;;;;;-1.55;100.00;99533.16;5283718;28;20025;-82
2023/01/18 09:46:43;;;;;;;21.25;13.55;;;;;;;-1.42;100.00;99546.31;5260089;28;20056;-82
2023/01/18 09:49:22;;;;;;;20.30;13.77;;;;;;;-1.31;100.00;99550.03;5249282;28;20548;-81
2023/01/18 09:52:12;;;;;;;22.10;14.40;;;;;;;-1.19;100.00;99555.28;5276045;28;20136;-81
2023/01/18 09:54:48;;;;;;;19.63;14.30;;;;;;;-1.04;100.00;99565.72;5272439;28;20405;-80
2023/01/18 09:57:39;;;;;;;20.08;14.00;;;;;;;-0.91;100.00;99561.38;5283993;28;20500;-81
2023/01/18 10:00:28;;;;;;;21.02;14.55;;;;;;;-0.87;100.00;99560.22;5278183;28;20068;-81
2023/01/18 10:03:06;;;;;;;20.33;14.35;;;;;;;-0.75;100.00;99566.44;5277471;28;20488;-81
2023/01/18 10:05:47;;;;;;;19.40;13.45;;;;;;;-0.68;100.00;99551.16;5275438;28;20479;-82
2023/01/18 10:08:24;;;;;;;18.35;13.40;;;;;;;-0.56;100.00;99558.19;5274531;28;20036;-81
2023/01/18 10:11:06;;;;;;;23.08;13.18;;;;;;;-0.44;100.00;99565.22;5276540;28;20113;-81
2023/01/18 10:13:53;;;;;;;16.25;12.27;;;;;;;-0.36;100.00;99566.47;5241929;28;20112;-82
2023/01/18 10:16:25;;;;;;;15.57;13.27;;;;;;;-0.30;100.00;99566.91;5243352;28;20116;-82
2023/01/18 10:18:56;;;;;;;17.50;12.82;;;;;;;-0.17;100.00;99579.19;5265810;28;20097;-82
2023/01/18 10:21:27;;;;;;;20.33;12.88;;;;;;;-0.09;100.00;99582.94;5271525;28;20140;-82
2023/01/18 10:24:34;;;;;;;16.80;11.93;;;;;;;-0.01;100.00;99583.25;5261574;28;20021;-81
2023/01/18 10:27:17;;;;;;;16.27;12.07;;;;;;;0.08;100.00;99581.78;5275193;28;20053;-81
2023/01/18 10:30:10;;;;;;;18.40;11.70;;;;;;;0.21;100.00;99573.91;5281599;28;20029;-82
2023/01/18 10:32:49;;;;;;;15.20;11.07;;;;;;;0.28;100.00;99580.41;5282112;28;20180;-82
2023/01/18 10:35:38;;;;;;;17.58;10.70;;;;;;;0.29;100.00;99583.84;5282497;28;20377;-82
2023/01/18 10:38:17;;;;;;;14.63;11.65;;;;;;;0.44;100.00;99588.03;5263643;28;20562;-81
2023/01/18 10:40:58;;;;;;;16.80;11.43;;;;;;;0.48;100.00;99583.41;5264163;28;20163;-82
2023/01/18 10:43:30;;;;;;;15.30;11.07;;;;;;;0.55;100.00;99582.00;5264055;28;20454;-82
2023/01/18 10:46:09;;;;;;;17.88;11.18;;;;;;;0.66;100.00;99574.19;5282917;28;20470;-82
2023/01/18 10:48:52;;;;;;;16.05;11.20;;;;;;;0.80;100.00;99580.25;5281034;28;20025;-82
2023/01/18 10:51:34;;;;;;;18.35;11.20;;;;;;;0.93;100.00;99584.50;5276043;28;20033;-83
2023/01/18 10:54:26;;;;;;;16.83;10.65;;;;;;;1.09;100.00;99581.59;5279879;28;20091;-82
2023/01/18 10:57:02;;;;;;;14.05;10.25;;;;;;;1.27;100.00;99583.81;5282564;28;20095;-83
2023/01/18 10:59:41;;;;;;;12.82;9.57;;;;;;;1.48;100.00;99581.38;5284317;28;20112;-83
2023/01/18 11:02:22;;;;;;;15.75;9.52;;;;;;;1.60;100.00;99569.94;5286974;28;20032;-82
2023/01/18 11:04:58;;;;;;;13.52;10.13;;;;;;;1.92;100.00;99589.47;5300659;28;20068;-81
2023/01/18 11:07:29;;;;;;;16.17;10.57;;;;;;;2.64;100.00;99583.84;5294402;28;20031;-82
2023/01/18 11:10:08;;;;;;;14.48;9.18;;;;;;;3.88;100.00;99588.59;5264600;28;20049;-82
2023/01/18 11:12:43;;;;;;;11.88;8.55;;;;;;;5.64;100.00;99599.56;5260851;28;20060;-82
2023/01/18 11:15:14;;;;;;;12.77;7.50;;;;;;;7.32;100.00;99588.94;5261012;28;20080;-83
2023/01/18 11:17:56;;;;;;;11.90;6.80;;;;;;;8.67;100.00;99592.97;5277916;28;20059;-83
2023/01/18 11:20:49;;;;;;;9.05;6.00;;;;;;;10.51;100.00;99582.03;5264208;28;20493;-82
2023/01/18 11:23:30;;;;;;;8.52;6.18;;;;;;;10.75;100.00;99594.41;5279961;28;20118;-82
2023/01/18 11:26:13;;;;;;;9.32;6.40;;;;;;;11.21;100.00;99596.34;5281658;28;20020;-82
2023/01/18 11:28:53;;;;;;;8.98;6.10;;;;;;;11.69;100.00;99587.13;5281253;28;20393;-82
2023/01/18 11:31:46;;;;;;;8.95;6.03;;;;;;;12.02;100.00;99584.16;5281818;28;20025;-83
2023/01/18 11:34:27;;;;;;;8.10;6.18;;;;;;;11.64;100.00;99577.97;5282014;28;20040;-82
2023/01/18 11:36:59;;;;;;;10.40;5.97;;;;;;;11.95;100.00;99571.72;5261588;28;20414;-83
2023/01/18 11:39:35;;;;;;;7.97;5.35;;;;;;;12.44;100.00;99584.53;5276729;28;20021;-83
2023/01/18 11:42:13;;;;;;;7.77;5.60;;;;;;;12.44;100.00;99576.53;5271665;28;20115;-84
2023/01/18 11:44:55;;;;;;;7.60;5.90;;;;;;;12.02;100.00;99578.81;5281905;28;20267;-83
2023/01/18 11:47:33;;;;;;;8.63;5.40;;;;;;;12.53;100.00;99575.41;5280514;28;20036;-83
2023/01/18 11:50:29;;;;;;;11.00;5.82;;;;;;;12.89;100.00;99574.63;5281992;28;20031;-83
2023/01/18 11:53:14;;;;;;;7.35;5.22;;;;;;;13.48;100.00;99583.47;5274521;28;20040;-83
2023/01/18 11:55:55;;;;;;;8.88;5.22;;;;;;;12.92;100.00;99573.41;5279618;28;20055;-83
2023/01/18 11:58:30;;;;;;;10.80;5.53;;;;;;;12.94;100.00;99579.38;5268703;28;20069;-83
2023/01/18 12:01:29;;;;;;;8.20;5.55;;;;;;;12.66;100.00;99570.22;5271580;28;20036;-84
2023/01/18 12:04:19;;;;;;;6.10;4.90;;;;;;;12.68;100.00;99581.56;5279091;28;20029;-84
2023/01/18 12:07:02;;;;;;;10.43;5.55;;;;;;;12.29;100.00;99588.06;5281475;28;20100;-84
2023/01/18 12:09:48;;;;;;;8.00;4.60;;;;;;;12.21;100.00;99587.31;5268359;28;20099;-83
2023/01/18 12:12:31;;;;;;;8.15;4.65;;;;;;;12.06;100.00;99589.97;5279794;28;20079;-84
2023/01/18 12:15:42;;;;;;;8.45;5.10;;;;;;;13.46;100.00;99589.03;5283066;28;20024;-83
2023/01/18 12:18:52;;;;;;;6.63;5.03;;;;;;;15.03;100.00;99601.19;5282899;28;20048;-82
2023/01/18 12:21:31;;;;;;;5.53;4.60;;;;;;;13.97;93.82;99596.91;5264537;28;20053;-81
2023/01/18 12:24:27;;;;;;;10.02;4.97;;;;;;;14.04;88.70;99596.09;5276594;28;20032;-81
2023/01/18 12:27:33;;;;;;;6.53;4.35;;;;;;;14.18;90.59;99598.69;5241153;28;20120;-82
2023/01/18 12:30:08;;;;;;;5.43;4.53;;;;;;;13.64;90.99;99601.13;5274533;28;20436;-82
2023/01/18 12:32:43;;;;;;;7.43;4.65;;;;;;;14.53;91.52;99596.00;5257194;28;20032;-81
2023/01/18 12:35:27;;;;;;;7.70;4.32;;;;;;;14.69;83.72;99594.88;5279005;28;20390;-82
2023/01/18 12:38:17;;;;;;;9.82;4.50;;;;;;;14.65;82.84;99595.47;5278430;28;20390;-82
2023/01/18 12:41:10;;;;;;;4.18;3.78;;;;;;;14.11;85.12;99607.69;5278313;28;20021;-82
2023/01/18 12:44:06;;;;;;;5.40;3.88;;;;;;;15.07;86.80;99609.66;5277695;28;20095;-81
2023/01/18 12:46:52;;;;;;;5.43;3.67;;;;;;;14.40;81.78;99608.53;5276001;28;20036;-82
2023/01/18 12:49:27;;;;;;;6.95;4.13;;;;;;;14.10;82.84;99606.88;5262788;28;20060;-81
2023/01/18 12:52:01;;;;;;;6.50;4.07;;;;;;;15.27;81.63;99613.25;5272394;28;20029;-82